Time;durP1;ratioP1;P1;durP2;ratioP2;P2;SDS_P1;SDS_P2;PMS_P1;PMS_P2;Temp;Humidity;BMP_temperature;BMP_pressure;BME280_temperature;BME280_humidity;BME280_pressure;Samples;Min_cycle;Max_cycle;Signal;HPM_P1;HPM_P2
2024/01/31 00:02:09;;;;;;;6.57;5.63;;;;;;;;;;6153366;23;20424;-72
2024/01/31 00:04:37;;;;;;;5.73;5.20;;;;;;;;;;6151902;23;20981;-71
2024/01/31 00:07:03;;;;;;;4.80;4.50;;;;;;;;;;6151043;23;20377;-71
2024/01/31 00:09:29;;;;;;;5.40;5.10;;;;;;;;;;6126395;23;20393;-71
2024/01/31 00:11:55;;;;;;;5.57;5.10;;;;;;;;;;6152837;23;20373;-72
2024/01/31 00:14:21;;;;;;;8.63;4.87;;;;;;;;;;6152700;23;20464;-71
2024/01/31 00:16:47;;;;;;;6.67;4.70;;;;;;;;;;6152338;23;20725;-71
2024/01/31 00:19:13;;;;;;;5.40;4.90;;;;;;;;;;6152447;23;20377;-71
2024/01/31 00:21:39;;;;;;;4.97;4.60;;;;;;;;;;6151999;23;20412;-71
2024/01/31 00:24:06;;;;;;;5.40;5.00;;;;;;;;;;6152361;23;20443;-71
2024/01/31 00:26:32;;;;;;;5.67;5.23;;;;;;;;;;6152570;23;20389;-71
2024/01/31 00:28:58;;;;;;;5.50;4.53;;;;;;;;;;6126126;23;20393;-71
2024/01/31 00:31:24;;;;;;;5.70;5.20;;;;;;;;;;6152542;23;20404;-71
2024/01/31 00:33:50;;;;;;;8.80;6.00;;;;;;;;;;6151868;23;20381;-71
2024/01/31 00:36:16;;;;;;;8.00;6.30;;;;;;;;;;6151481;23;20401;-72
2024/01/31 00:38:42;;;;;;;7.67;6.93;;;;;;;;;;6126736;23;20447;-71
2024/01/31 00:41:08;;;;;;;14.20;7.50;;;;;;;;;;6153200;23;20416;-71
2024/01/31 00:43:34;;;;;;;18.87;11.10;;;;;;;;;;6125851;23;20388;-72
2024/01/31 00:46:04;;;;;;;11.10;8.77;;;;;;;;;;6152471;23;20443;-71
2024/01/31 00:48:32;;;;;;;13.80;9.03;;;;;;;;;;6153054;23;20381;-71
2024/01/31 00:50:58;;;;;;;10.73;8.30;;;;;;;;;;6125488;23;20397;-71
2024/01/31 00:53:24;;;;;;;9.93;8.03;;;;;;;;;;6152318;23;20867;-71
2024/01/31 00:55:50;;;;;;;15.80;7.20;;;;;;;;;;6152108;23;20388;-71
2024/01/31 00:58:16;;;;;;;6.37;5.77;;;;;;;;;;6150976;23;20855;-71
2024/01/31 01:00:42;;;;;;;6.90;6.20;;;;;;;;;;6152801;23;20855;-71
2024/01/31 01:03:08;;;;;;;8.40;5.60;;;;;;;;;;6152647;23;20384;-71
2024/01/31 01:05:34;;;;;;;14.73;6.37;;;;;;;;;;6151097;23;20437;-71
2024/01/31 01:08:00;;;;;;;7.30;5.57;;;;;;;;;;6151234;23;20376;-71
2024/01/31 01:10:28;;;;;;;7.30;6.60;;;;;;;;;;6152687;23;20440;-71
2024/01/31 01:12:53;;;;;;;6.20;5.70;;;;;;;;;;6152224;23;20383;-71
2024/01/31 01:15:19;;;;;;;15.40;5.90;;;;;;;;;;6151549;23;20412;-71
2024/01/31 01:17:45;;;;;;;6.10;5.50;;;;;;;;;;6151565;23;20374;-70
2024/01/31 01:20:12;;;;;;;5.73;5.33;;;;;;;;;;6152447;23;20388;-71
2024/01/31 01:22:38;;;;;;;5.80;5.40;;;;;;;;;;6151892;23;20443;-72
2024/01/31 01:25:05;;;;;;;5.50;5.00;;;;;;;;;;6152335;23;20440;-71
2024/01/31 01:27:30;;;;;;;5.63;5.23;;;;;;;;;;6152008;23;20404;-71
2024/01/31 01:29:56;;;;;;;6.83;4.20;;;;;;;;;;6152456;23;20867;-71
2024/01/31 01:32:23;;;;;;;5.13;4.80;;;;;;;;;;6152919;23;20377;-71
2024/01/31 01:34:49;;;;;;;4.80;4.40;;;;;;;;;;6152845;23;20884;-71
2024/01/31 01:37:15;;;;;;;6.63;4.40;;;;;;;;;;6151239;23;20388;-72
2024/01/31 01:39:43;;;;;;;4.40;4.03;;;;;;;;;;6152601;23;20377;-71
2024/01/31 01:42:09;;;;;;;3.80;3.67;;;;;;;;;;6152614;23;20857;-71
2024/01/31 01:44:39;;;;;;;4.60;4.20;;;;;;;;;;6152567;23;20528;-71
2024/01/31 01:47:05;;;;;;;4.10;3.90;;;;;;;;;;6151648;23;20835;-71
2024/01/31 01:49:31;;;;;;;3.47;3.13;;;;;;;;;;6152761;23;20404;-71
2024/01/31 01:51:57;;;;;;;3.90;3.70;;;;;;;;;;6125180;23;20858;-70
2024/01/31 01:54:23;;;;;;;3.90;3.70;;;;;;;;;;6152369;23;20388;-71
2024/01/31 01:56:50;;;;;;;5.70;4.00;;;;;;;;;;6151646;23;20918;-71
2024/01/31 01:59:16;;;;;;;3.57;3.13;;;;;;;;;;6151804;23;20385;-71
2024/01/31 02:01:42;;;;;;;3.60;3.40;;;;;;;;;;6152465;23;20676;-71
2024/01/31 02:04:09;;;;;;;3.87;3.67;;;;;;;;;;6151856;23;20796;-70
2024/01/31 02:06:35;;;;;;;2.87;2.77;;;;;;;;;;6151027;23;20385;-70
2024/01/31 02:09:02;;;;;;;3.43;3.13;;;;;;;;;;6152792;23;20380;-71
2024/01/31 02:11:28;;;;;;;3.77;3.57;;;;;;;;;;6152277;23;20440;-71
2024/01/31 02:13:54;;;;;;;3.00;2.83;;;;;;;;;;6151473;23;20383;-71
2024/01/31 02:16:20;;;;;;;3.50;3.00;;;;;;;;;;6152019;23;20723;-71
2024/01/31 02:18:46;;;;;;;3.30;3.10;;;;;;;;;;6151896;23;20719;-71
2024/01/31 02:21:12;;;;;;;3.67;3.47;;;;;;;;;;6151803;23;20438;-71
2024/01/31 02:23:38;;;;;;;5.20;3.70;;;;;;;;;;6152159;23;20415;-71
2024/01/31 02:26:05;;;;;;;3.37;3.27;;;;;;;;;;6152122;23;20759;-71
2024/01/31 02:28:30;;;;;;;3.00;2.90;;;;;;;;;;6152496;23;20377;-71
2024/01/31 02:30:57;;;;;;;3.70;3.57;;;;;;;;;;6152296;23;20404;-71
2024/01/31 02:33:23;;;;;;;3.40;3.20;;;;;;;;;;6152342;23;20432;-71
2024/01/31 02:35:49;;;;;;;3.87;3.67;;;;;;;;;;6150939;23;21241;-71
2024/01/31 02:38:15;;;;;;;2.90;2.70;;;;;;;;;;6153209;23;20415;-71
2024/01/31 02:40:41;;;;;;;3.43;3.33;;;;;;;;;;6154436;23;20393;-71
2024/01/31 02:43:07;;;;;;;7.33;3.20;;;;;;;;;;6154633;23;20373;-71
2024/01/31 02:45:35;;;;;;;3.87;3.47;;;;;;;;;;6153050;23;20930;-71
2024/01/31 02:48:01;;;;;;;3.70;3.50;;;;;;;;;;6153760;23;20477;-71
2024/01/31 02:50:30;;;;;;;3.90;3.70;;;;;;;;;;6153183;23;20385;-71
2024/01/31 02:52:56;;;;;;;3.80;3.47;;;;;;;;;;6153768;23;20392;-70
2024/01/31 02:55:22;;;;;;;4.30;3.90;;;;;;;;;;6126229;23;20393;-71
2024/01/31 02:57:48;;;;;;;3.90;3.63;;;;;;;;;;6153511;23;20770;-71
2024/01/31 03:00:14;;;;;;;5.23;4.77;;;;;;;;;;6151982;23;20416;-72
2024/01/31 03:02:42;;;;;;;4.43;4.03;;;;;;;;;;6153936;23;20855;-71
2024/01/31 03:05:08;;;;;;;4.60;3.57;;;;;;;;;;6152981;23;20432;-71
2024/01/31 03:07:34;;;;;;;4.17;3.87;;;;;;;;;;6153571;23;20373;-71
2024/01/31 03:10:00;;;;;;;3.70;3.50;;;;;;;;;;6153022;23;20776;-71
2024/01/31 03:12:26;;;;;;;3.60;3.40;;;;;;;;;;6154043;23;20423;-71
2024/01/31 03:14:52;;;;;;;4.80;3.60;;;;;;;;;;6153228;23;20427;-71
2024/01/31 03:17:18;;;;;;;3.33;3.03;;;;;;;;;;6153415;23;20376;-70
2024/01/31 03:19:44;;;;;;;3.20;3.03;;;;;;;;;;6152378;23;20468;-71
2024/01/31 03:22:10;;;;;;;4.63;3.60;;;;;;;;;;6153765;23;20385;-71
2024/01/31 03:24:36;;;;;;;2.50;2.40;;;;;;;;;;6152838;23;20427;-71
2024/01/31 03:27:03;;;;;;;3.37;3.17;;;;;;;;;;6153818;23;20452;-71
2024/01/31 03:29:29;;;;;;;3.87;3.50;;;;;;;;;;6153149;23;20372;-72
2024/01/31 03:31:55;;;;;;;2.97;2.77;;;;;;;;;;6153263;23;20788;-71
2024/01/31 03:34:21;;;;;;;2.93;2.83;;;;;;;;;;6154317;23;20377;-71
2024/01/31 03:36:47;;;;;;;2.90;2.70;;;;;;;;;;6152510;23;20388;-71
2024/01/31 03:39:13;;;;;;;2.83;2.63;;;;;;;;;;6152833;23;20404;-71
2024/01/31 03:41:45;;;;;;;5.93;3.03;;;;;;;;;;6153215;23;20451;-71
2024/01/31 03:44:13;;;;;;;3.60;2.63;;;;;;;;;;6152822;23;20507;-71
2024/01/31 03:46:39;;;;;;;2.60;2.40;;;;;;;;;;6153147;23;20742;-71
2024/01/31 03:49:05;;;;;;;2.73;2.50;;;;;;;;;;6152404;23;20401;-71
2024/01/31 03:51:31;;;;;;;4.37;2.63;;;;;;;;;;6152776;23;20392;-71
2024/01/31 03:53:57;;;;;;;3.17;2.30;;;;;;;;;;6153583;23;20387;-71
2024/01/31 03:56:23;;;;;;;3.57;2.37;;;;;;;;;;6127128;23;20720;-72
2024/01/31 03:58:49;;;;;;;3.00;2.80;;;;;;;;;;6152666;23;20826;-71
2024/01/31 04:01:15;;;;;;;2.70;2.50;;;;;;;;;;6153267;23;20391;-71
2024/01/31 04:03:43;;;;;;;2.80;2.33;;;;;;;;;;6153341;23;20460;-71
2024/01/31 04:06:09;;;;;;;2.50;2.40;;;;;;;;;;6152369;23;20404;-71
2024/01/31 04:08:35;;;;;;;2.30;2.30;;;;;;;;;;6153083;23;20423;-71
2024/01/31 04:11:01;;;;;;;2.90;2.50;;;;;;;;;;6152800;23;20479;-71
2024/01/31 04:13:27;;;;;;;2.97;2.87;;;;;;;;;;6153010;23;20691;-71
2024/01/31 04:15:53;;;;;;;3.87;2.97;;;;;;;;;;6152453;23;20704;-71
2024/01/31 04:18:19;;;;;;;2.33;2.33;;;;;;;;;;6152904;23;20375;-71
2024/01/31 04:20:46;;;;;;;3.00;2.80;;;;;;;;;;6152415;23;20377;-70
2024/01/31 04:23:12;;;;;;;2.57;2.47;;;;;;;;;;6152845;23;20389;-69
2024/01/31 04:25:38;;;;;;;2.37;2.27;;;;;;;;;;6152400;23;20432;-68
2024/01/31 04:28:04;;;;;;;2.20;2.10;;;;;;;;;;6153424;23;20524;-68
2024/01/31 04:30:31;;;;;;;2.40;2.30;;;;;;;;;;6126618;23;20404;-69
2024/01/31 04:33:00;;;;;;;2.57;2.47;;;;;;;;;;6152562;23;20385;-69
2024/01/31 04:35:27;;;;;;;2.60;2.53;;;;;;;;;;6151348;23;20385;-70
2024/01/31 04:37:53;;;;;;;2.63;2.60;;;;;;;;;;6152862;23;20370;-69
2024/01/31 04:40:18;;;;;;;2.00;2.00;;;;;;;;;;6152398;23;20440;-69
2024/01/31 04:42:46;;;;;;;4.30;2.10;;;;;;;;;;6153518;23;20392;-69
2024/01/31 04:45:12;;;;;;;3.10;2.90;;;;;;;;;;6125428;23;20783;-69
2024/01/31 04:47:38;;;;;;;7.10;2.57;;;;;;;;;;6152465;23;20373;-69
2024/01/31 04:50:05;;;;;;;2.73;2.53;;;;;;;;;;6152348;23;20444;-69
2024/01/31 04:52:31;;;;;;;2.23;2.20;;;;;;;;;;6152703;23;20680;-69
2024/01/31 04:54:56;;;;;;;2.57;2.50;;;;;;;;;;6152361;23;20432;-69
2024/01/31 04:57:24;;;;;;;4.60;2.57;;;;;;;;;;6152604;23;20823;-69
2024/01/31 04:59:50;;;;;;;3.13;2.97;;;;;;;;;;6152565;23;20843;-69
2024/01/31 05:02:16;;;;;;;2.47;2.37;;;;;;;;;;6151667;23;20369;-69
2024/01/31 05:04:42;;;;;;;2.60;2.33;;;;;;;;;;6152560;23;20761;-68
2024/01/31 05:07:08;;;;;;;1.80;1.80;;;;;;;;;;6152723;23;20369;-69
2024/01/31 05:09:34;;;;;;;1.97;1.87;;;;;;;;;;6152119;23;20763;-69
2024/01/31 05:12:00;;;;;;;2.33;2.23;;;;;;;;;;6152353;23;20377;-69
2024/01/31 05:14:26;;;;;;;2.93;2.60;;;;;;;;;;6150964;23;20732;-69
2024/01/31 05:16:52;;;;;;;2.40;2.30;;;;;;;;;;6150614;23;20427;-69
2024/01/31 05:19:18;;;;;;;2.63;2.53;;;;;;;;;;6151004;23;20440;-68
2024/01/31 05:21:48;;;;;;;2.90;2.80;;;;;;;;;;6150427;23;20408;-69
2024/01/31 05:24:14;;;;;;;6.17;2.53;;;;;;;;;;6152595;23;20524;-68
2024/01/31 05:26:40;;;;;;;4.33;2.87;;;;;;;;;;6151810;23;20381;-69
2024/01/31 05:29:07;;;;;;;5.10;4.03;;;;;;;;;;6151946;23;20399;-69
2024/01/31 05:31:33;;;;;;;2.93;2.73;;;;;;;;;;6150836;23;20389;-69
2024/01/31 05:33:59;;;;;;;2.30;2.30;;;;;;;;;;6151369;23;20380;-69
2024/01/31 05:36:25;;;;;;;4.00;3.57;;;;;;;;;;6151010;23;20389;-69
2024/01/31 05:38:51;;;;;;;7.13;3.27;;;;;;;;;;6152071;23;20377;-69
2024/01/31 05:41:17;;;;;;;3.30;3.20;;;;;;;;;;6151929;23;20381;-69
2024/01/31 05:43:43;;;;;;;3.10;2.97;;;;;;;;;;6151929;23;20373;-69
2024/01/31 05:46:09;;;;;;;3.40;2.93;;;;;;;;;;6151550;23;20978;-69
2024/01/31 05:48:35;;;;;;;6.43;3.73;;;;;;;;;;6151735;23;20930;-69
2024/01/31 05:51:01;;;;;;;14.20;4.50;;;;;;;;;;6125704;23;20492;-69
2024/01/31 05:53:27;;;;;;;5.23;4.73;;;;;;;;;;6151614;23;20442;-69
2024/01/31 05:55:53;;;;;;;4.43;4.10;;;;;;;;;;6150838;23;20396;-69
2024/01/31 05:58:19;;;;;;;6.20;5.17;;;;;;;;;;6151268;23;20389;-69
2024/01/31 06:00:46;;;;;;;5.87;4.97;;;;;;;;;;6151816;23;20835;-70
2024/01/31 06:03:12;;;;;;;9.07;5.13;;;;;;;;;;6151650;23;20373;-69
2024/01/31 06:05:38;;;;;;;4.33;3.97;;;;;;;;;;6150568;23;20491;-69
2024/01/31 06:08:04;;;;;;;5.47;5.10;;;;;;;;;;6151792;23;20369;-69
2024/01/31 06:10:30;;;;;;;5.73;5.20;;;;;;;;;;6152650;23;20753;-69
2024/01/31 06:12:56;;;;;;;6.20;5.60;;;;;;;;;;6126370;23;20396;-69
2024/01/31 06:15:23;;;;;;;8.93;5.40;;;;;;;;;;6153603;23;20766;-69
2024/01/31 06:17:49;;;;;;;4.50;4.30;;;;;;;;;;6154812;23;20384;-69
2024/01/31 06:20:15;;;;;;;7.73;5.37;;;;;;;;;;6154521;23;20908;-69
2024/01/31 06:22:41;;;;;;;7.90;3.73;;;;;;;;;;6153876;23;20377;-69
2024/01/31 06:25:07;;;;;;;5.40;4.80;;;;;;;;;;6154350;23;20467;-69
2024/01/31 06:27:35;;;;;;;5.20;4.80;;;;;;;;;;6153581;23;20413;-69
2024/01/31 06:30:01;;;;;;;8.17;4.50;;;;;;;;;;6153242;23;20440;-69
2024/01/31 06:32:33;;;;;;;9.43;8.50;;;;;;;;;;6154546;23;20368;-69
2024/01/31 06:34:59;;;;;;;6.20;4.40;;;;;;;;;;6153013;23;20360;-70
2024/01/31 06:37:26;;;;;;;4.77;4.37;;;;;;;;;;6153529;23;20380;-69
2024/01/31 06:39:52;;;;;;;7.30;4.47;;;;;;;;;;6154488;23;20424;-69
2024/01/31 06:42:18;;;;;;;5.63;5.23;;;;;;;;;;6154377;23;20384;-69
2024/01/31 06:44:44;;;;;;;5.43;4.93;;;;;;;;;;6153628;23;20424;-69
2024/01/31 06:47:10;;;;;;;8.17;6.40;;;;;;;;;;6153488;23;20388;-69
2024/01/31 06:49:36;;;;;;;10.00;7.80;;;;;;;;;;6153477;23;20369;-69
2024/01/31 06:52:02;;;;;;;24.13;11.53;;;;;;;;;;6154685;23;20440;-69
2024/01/31 06:54:28;;;;;;;17.40;11.80;;;;;;;;;;6153769;23;20365;-69
2024/01/31 06:56:54;;;;;;;23.38;12.80;;;;;;;;;;6152638;23;20559;-79
2024/01/31 06:59:20;;;;;;;14.20;10.63;;;;;;;;;;6127057;23;20335;-78
2024/01/31 07:01:46;;;;;;;13.43;10.90;;;;;;;;;;6153836;23;20391;-61
2024/01/31 07:04:12;;;;;;;13.67;11.90;;;;;;;;;;6152777;23;20919;-69
2024/01/31 07:06:38;;;;;;;14.10;9.40;;;;;;;;;;6153014;23;20384;-69
2024/01/31 07:09:04;;;;;;;17.07;13.63;;;;;;;;;;6153384;23;20385;-68
2024/01/31 09:56:10;;;;;;;6.67;3.30;;;;;;;;;;6130040;23;20535;-70
2024/01/31 09:58:36;;;;;;;4.13;3.93;;;;;;;;;;6153005;23;20849;-70
2024/01/31 10:01:03;;;;;;;3.77;3.57;;;;;;;;;;6153470;23;20388;-70
2024/01/31 10:03:29;;;;;;;6.30;4.70;;;;;;;;;;6125406;23;20393;-70
2024/01/31 10:05:55;;;;;;;11.97;6.27;;;;;;;;;;6152175;23;20914;-70
2024/01/31 10:08:21;;;;;;;6.50;5.73;;;;;;;;;;6152582;23;20377;-70
2024/01/31 10:10:48;;;;;;;12.47;4.80;;;;;;;;;;6153555;23;20397;-70
2024/01/31 10:13:14;;;;;;;4.73;4.30;;;;;;;;;;6154654;23;20384;-70
2024/01/31 10:15:40;;;;;;;4.73;4.53;;;;;;;;;;6154214;23;20381;-70
2024/01/31 10:18:06;;;;;;;7.03;4.70;;;;;;;;;;6153186;23;20388;-70
2024/01/31 10:20:32;;;;;;;5.63;5.23;;;;;;;;;;6152952;23;20380;-70
